sensor_id;sensor_type;location;lat;lon;timestamp;P1;durP1;ratioP1;P2;durP2;ratioP2
12577;SDS011;6354;51.026;8.968;2023-04-03T00:01:09;345.03;;;301.93;;
12577;SDS011;6354;51.026;8.968;2023-04-03T00:03:39;315.53;;;275.93;;
12577;SDS011;6354;51.026;8.968;2023-04-03T00:06:07;340.70;;;281.73;;
12577;SDS011;6354;51.026;8.968;2023-04-03T00:08:37;134.20;;;121.00;;
12577;SDS011;6354;51.026;8.968;2023-04-03T00:11:06;440.30;;;291.20;;
12577;SDS011;6354;51.026;8.968;2023-04-03T00:13:34;256.13;;;231.90;;
12577;SDS011;6354;51.026;8.968;2023-04-03T00:16:02;179.77;;;165.37;;
12577;SDS011;6354;51.026;8.968;2023-04-03T00:18:31;476.37;;;301.27;;
12577;SDS011;6354;51.026;8.968;2023-04-03T00:21:00;1091.93;;;456.10;;
12577;SDS011;6354;51.026;8.968;2023-04-03T00:23:28;1855.83;;;666.83;;
12577;SDS011;6354;51.026;8.968;2023-04-03T00:25:56;368.50;;;217.57;;
12577;SDS011;6354;51.026;8.968;2023-04-03T00:28:24;133.93;;;121.10;;
12577;SDS011;6354;51.026;8.968;2023-04-03T00:30:53;267.30;;;242.43;;
12577;SDS011;6354;51.026;8.968;2023-04-03T00:33:21;264.00;;;240.97;;
12577;SDS011;6354;51.026;8.968;2023-04-03T00:35:50;1999.90;;;935.17;;
12577;SDS011;6354;51.026;8.968;2023-04-03T00:38:20;775.00;;;390.77;;
12577;SDS011;6354;51.026;8.968;2023-04-03T00:40:48;630.23;;;403.50;;
12577;SDS011;6354;51.026;8.968;2023-04-03T00:43:18;188.83;;;173.83;;
12577;SDS011;6354;51.026;8.968;2023-04-03T00:45:48;1999.90;;;749.50;;
12577;SDS011;6354;51.026;8.968;2023-04-03T00:48:18;545.43;;;294.90;;
12577;SDS011;6354;51.026;8.968;2023-04-03T00:50:49;194.70;;;177.80;;
12577;SDS011;6354;51.026;8.968;2023-04-03T00:53:21;207.93;;;192.10;;
12577;SDS011;6354;51.026;8.968;2023-04-03T00:55:52;839.93;;;297.60;;
12577;SDS011;6354;51.026;8.968;2023-04-03T00:58:25;159.83;;;146.63;;
12577;SDS011;6354;51.026;8.968;2023-04-03T01:00:59;1999.90;;;999.90;;
12577;SDS011;6354;51.026;8.968;2023-04-03T01:03:31;280.70;;;253.27;;
12577;SDS011;6354;51.026;8.968;2023-04-03T01:05:59;1819.50;;;554.33;;
12577;SDS011;6354;51.026;8.968;2023-04-03T01:08:29;127.63;;;114.87;;
12577;SDS011;6354;51.026;8.968;2023-04-03T01:10:57;228.67;;;201.80;;
12577;SDS011;6354;51.026;8.968;2023-04-03T01:13:26;652.67;;;348.90;;
12577;SDS011;6354;51.026;8.968;2023-04-03T01:15:55;356.20;;;317.17;;
12577;SDS011;6354;51.026;8.968;2023-04-03T01:18:24;1050.67;;;381.37;;
12577;SDS011;6354;51.026;8.968;2023-04-03T01:23:46;326.30;;;265.20;;
12577;SDS011;6354;51.026;8.968;2023-04-03T01:26:21;1313.17;;;693.63;;
12577;SDS011;6354;51.026;8.968;2023-04-03T01:28:49;233.03;;;212.67;;
12577;SDS011;6354;51.026;8.968;2023-04-03T01:31:18;1298.00;;;480.57;;
12577;SDS011;6354;51.026;8.968;2023-04-03T01:33:51;367.13;;;301.63;;
12577;SDS011;6354;51.026;8.968;2023-04-03T01:36:20;1999.90;;;899.40;;
12577;SDS011;6354;51.026;8.968;2023-04-03T01:38:50;1999.90;;;888.77;;
12577;SDS011;6354;51.026;8.968;2023-04-03T01:41:19;1585.00;;;721.90;;
12577;SDS011;6354;51.026;8.968;2023-04-03T01:43:48;1308.37;;;515.17;;
12577;SDS011;6354;51.026;8.968;2023-04-03T01:46:17;1641.63;;;641.00;;
12577;SDS011;6354;51.026;8.968;2023-04-03T01:48:46;489.70;;;443.33;;
12577;SDS011;6354;51.026;8.968;2023-04-03T01:51:15;704.33;;;452.03;;
12577;SDS011;6354;51.026;8.968;2023-04-03T01:53:43;400.13;;;367.23;;
12577;SDS011;6354;51.026;8.968;2023-04-03T01:56:11;555.73;;;505.60;;
12577;SDS011;6354;51.026;8.968;2023-04-03T01:58:39;334.83;;;312.00;;
12577;SDS011;6354;51.026;8.968;2023-04-03T02:01:07;850.37;;;546.07;;
12577;SDS011;6354;51.026;8.968;2023-04-03T02:03:35;591.57;;;433.57;;
12577;SDS011;6354;51.026;8.968;2023-04-03T02:06:04;472.03;;;433.57;;
12577;SDS011;6354;51.026;8.968;2023-04-03T02:08:33;1961.80;;;735.03;;
12577;SDS011;6354;51.026;8.968;2023-04-03T02:11:02;1067.90;;;567.20;;
12577;SDS011;6354;51.026;8.968;2023-04-03T02:13:29;362.27;;;332.30;;
12577;SDS011;6354;51.026;8.968;2023-04-03T02:15:57;1208.90;;;575.43;;
12577;SDS011;6354;51.026;8.968;2023-04-03T02:18:26;425.27;;;391.37;;
12577;SDS011;6354;51.026;8.968;2023-04-03T02:20:54;1999.90;;;975.47;;
12577;SDS011;6354;51.026;8.968;2023-04-03T02:23:22;614.87;;;425.90;;
12577;SDS011;6354;51.026;8.968;2023-04-03T02:25:51;1999.90;;;999.90;;
12577;SDS011;6354;51.026;8.968;2023-04-03T02:28:19;1999.90;;;939.57;;
12577;SDS011;6354;51.026;8.968;2023-04-03T02:30:47;543.43;;;485.77;;
12577;SDS011;6354;51.026;8.968;2023-04-03T02:33:15;530.70;;;435.47;;
12577;SDS011;6354;51.026;8.968;2023-04-03T02:35:43;634.87;;;507.50;;
12577;SDS011;6354;51.026;8.968;2023-04-03T02:38:19;488.03;;;441.50;;
12577;SDS011;6354;51.026;8.968;2023-04-03T02:40:47;1999.90;;;934.63;;
12577;SDS011;6354;51.026;8.968;2023-04-03T02:43:16;1999.90;;;847.87;;
12577;SDS011;6354;51.026;8.968;2023-04-03T02:45:44;1999.90;;;844.33;;
12577;SDS011;6354;51.026;8.968;2023-04-03T02:48:12;398.73;;;360.27;;
12577;SDS011;6354;51.026;8.968;2023-04-03T02:50:43;594.27;;;539.67;;
12577;SDS011;6354;51.026;8.968;2023-04-03T02:53:10;940.03;;;573.53;;
12577;SDS011;6354;51.026;8.968;2023-04-03T02:55:38;1318.73;;;535.60;;
12577;SDS011;6354;51.026;8.968;2023-04-03T02:58:07;387.83;;;357.03;;
12577;SDS011;6354;51.026;8.968;2023-04-03T03:00:36;537.13;;;351.67;;
12577;SDS011;6354;51.026;8.968;2023-04-03T03:03:05;692.20;;;426.03;;
12577;SDS011;6354;51.026;8.968;2023-04-03T03:05:33;444.80;;;403.97;;
12577;SDS011;6354;51.026;8.968;2023-04-03T03:08:02;306.20;;;281.27;;
12577;SDS011;6354;51.026;8.968;2023-04-03T03:10:30;347.20;;;228.47;;
12577;SDS011;6354;51.026;8.968;2023-04-03T03:12:58;551.23;;;316.20;;
12577;SDS011;6354;51.026;8.968;2023-04-03T03:15:26;645.30;;;315.33;;
12577;SDS011;6354;51.026;8.968;2023-04-03T03:17:55;1218.33;;;410.97;;
12577;SDS011;6354;51.026;8.968;2023-04-03T03:20:23;1971.40;;;621.77;;
12577;SDS011;6354;51.026;8.968;2023-04-03T03:22:51;576.00;;;351.30;;
12577;SDS011;6354;51.026;8.968;2023-04-03T03:25:19;834.57;;;420.03;;
12577;SDS011;6354;51.026;8.968;2023-04-03T03:27:47;1832.80;;;666.53;;
12577;SDS011;6354;51.026;8.968;2023-04-03T03:30:15;1143.23;;;544.33;;
12577;SDS011;6354;51.026;8.968;2023-04-03T03:32:43;1282.87;;;594.57;;
12577;SDS011;6354;51.026;8.968;2023-04-03T03:35:13;1860.13;;;490.47;;
12577;SDS011;6354;51.026;8.968;2023-04-03T03:37:41;855.90;;;313.40;;
12577;SDS011;6354;51.026;8.968;2023-04-03T03:40:10;864.40;;;376.77;;
12577;SDS011;6354;51.026;8.968;2023-04-03T03:42:39;289.63;;;249.93;;
12577;SDS011;6354;51.026;8.968;2023-04-03T03:45:07;320.77;;;291.93;;
12577;SDS011;6354;51.026;8.968;2023-04-03T03:47:36;401.80;;;280.93;;
12577;SDS011;6354;51.026;8.968;2023-04-03T03:50:05;227.33;;;204.77;;
12577;SDS011;6354;51.026;8.968;2023-04-03T03:52:35;806.17;;;566.63;;
12577;SDS011;6354;51.026;8.968;2023-04-03T03:55:03;1999.90;;;553.90;;
12577;SDS011;6354;51.026;8.968;2023-04-03T03:57:32;357.47;;;297.13;;
12577;SDS011;6354;51.026;8.968;2023-04-03T04:00:00;740.70;;;385.63;;
12577;SDS011;6354;51.026;8.968;2023-04-03T04:02:28;1999.90;;;752.60;;
12577;SDS011;6354;51.026;8.968;2023-04-03T04:04:56;1999.90;;;662.67;;
12577;SDS011;6354;51.026;8.968;2023-04-03T04:07:24;727.03;;;395.40;;
12577;SDS011;6354;51.026;8.968;2023-04-03T04:09:55;1999.90;;;701.30;;
12577;SDS011;6354;51.026;8.968;2023-04-03T04:12:23;1581.07;;;503.50;;
12577;SDS011;6354;51.026;8.968;2023-04-03T04:14:51;1122.30;;;362.00;;
12577;SDS011;6354;51.026;8.968;2023-04-03T04:17:19;1999.90;;;645.43;;
12577;SDS011;6354;51.026;8.968;2023-04-03T04:19:47;1999.90;;;532.10;;
12577;SDS011;6354;51.026;8.968;2023-04-03T04:22:15;1442.13;;;484.97;;
12577;SDS011;6354;51.026;8.968;2023-04-03T04:24:43;1716.50;;;532.10;;
12577;SDS011;6354;51.026;8.968;2023-04-03T04:27:13;1999.90;;;656.23;;
12577;SDS011;6354;51.026;8.968;2023-04-03T04:29:41;1866.90;;;515.57;;
12577;SDS011;6354;51.026;8.968;2023-04-03T04:32:09;669.80;;;288.13;;
12577;SDS011;6354;51.026;8.968;2023-04-03T04:34:37;733.93;;;270.33;;
12577;SDS011;6354;51.026;8.968;2023-04-03T04:37:05;859.53;;;386.50;;
12577;SDS011;6354;51.026;8.968;2023-04-03T04:39:34;1521.83;;;432.23;;
12577;SDS011;6354;51.026;8.968;2023-04-03T04:42:02;362.17;;;251.07;;
12577;SDS011;6354;51.026;8.968;2023-04-03T04:44:31;1576.70;;;559.63;;
12577;SDS011;6354;51.026;8.968;2023-04-03T04:46:59;1999.90;;;851.27;;
12577;SDS011;6354;51.026;8.968;2023-04-03T04:49:27;616.57;;;295.73;;
12577;SDS011;6354;51.026;8.968;2023-04-03T04:51:55;1611.83;;;502.43;;
12577;SDS011;6354;51.026;8.968;2023-04-03T04:54:23;1999.90;;;771.83;;
12577;SDS011;6354;51.026;8.968;2023-04-03T04:56:51;382.40;;;238.53;;
12577;SDS011;6354;51.026;8.968;2023-04-03T04:59:19;1999.90;;;682.17;;
12577;SDS011;6354;51.026;8.968;2023-04-03T05:01:49;1944.60;;;549.77;;
12577;SDS011;6354;51.026;8.968;2023-04-03T05:04:17;1764.73;;;487.50;;
12577;SDS011;6354;51.026;8.968;2023-04-03T05:06:45;1999.90;;;719.57;;
12577;SDS011;6354;51.026;8.968;2023-04-03T05:09:13;1980.50;;;589.70;;
12577;SDS011;6354;51.026;8.968;2023-04-03T05:11:41;1999.90;;;636.17;;
12577;SDS011;6354;51.026;8.968;2023-04-03T05:14:10;557.03;;;273.00;;
12577;SDS011;6354;51.026;8.968;2023-04-03T05:16:37;1999.90;;;899.13;;
12577;SDS011;6354;51.026;8.968;2023-04-03T05:19:07;1999.90;;;779.60;;
12577;SDS011;6354;51.026;8.968;2023-04-03T05:21:35;256.47;;;205.97;;
12577;SDS011;6354;51.026;8.968;2023-04-03T05:24:03;976.70;;;373.20;;
12577;SDS011;6354;51.026;8.968;2023-04-03T05:26:35;1726.83;;;478.97;;
12577;SDS011;6354;51.026;8.968;2023-04-03T05:29:03;1939.17;;;488.80;;
12577;SDS011;6354;51.026;8.968;2023-04-03T05:31:31;1999.90;;;602.17;;
12577;SDS011;6354;51.026;8.968;2023-04-03T05:33:59;1999.90;;;605.33;;
12577;SDS011;6354;51.026;8.968;2023-04-03T05:36:28;1999.90;;;843.60;;
12577;SDS011;6354;51.026;8.968;2023-04-03T05:38:56;1233.93;;;428.93;;
12577;SDS011;6354;51.026;8.968;2023-04-03T05:41:24;1999.90;;;566.53;;
12577;SDS011;6354;51.026;8.968;2023-04-03T05:43:52;1999.90;;;905.90;;
12577;SDS011;6354;51.026;8.968;2023-04-03T05:46:21;1999.90;;;802.07;;
12577;SDS011;6354;51.026;8.968;2023-04-03T05:48:49;1826.90;;;494.43;;
12577;SDS011;6354;51.026;8.968;2023-04-03T05:51:18;476.93;;;304.83;;
12577;SDS011;6354;51.026;8.968;2023-04-03T05:53:48;1999.90;;;719.97;;
12577;SDS011;6354;51.026;8.968;2023-04-03T05:56:27;1674.20;;;581.83;;
12577;SDS011;6354;51.026;8.968;2023-04-03T05:58:55;1999.90;;;814.37;;
12577;SDS011;6354;51.026;8.968;2023-04-03T06:01:23;1999.90;;;662.70;;
12577;SDS011;6354;51.026;8.968;2023-04-03T06:03:51;1569.30;;;590.87;;
12577;SDS011;6354;51.026;8.968;2023-04-03T06:06:20;1999.90;;;625.27;;
12577;SDS011;6354;51.026;8.968;2023-04-03T06:08:49;1153.77;;;417.17;;
12577;SDS011;6354;51.026;8.968;2023-04-03T06:11:17;1999.90;;;826.97;;
12577;SDS011;6354;51.026;8.968;2023-04-03T06:13:47;1999.90;;;995.43;;
12577;SDS011;6354;51.026;8.968;2023-04-03T06:16:15;1999.90;;;623.43;;
12577;SDS011;6354;51.026;8.968;2023-04-03T06:18:44;1999.90;;;701.83;;
12577;SDS011;6354;51.026;8.968;2023-04-03T06:21:12;1999.90;;;772.50;;
12577;SDS011;6354;51.026;8.968;2023-04-03T06:23:40;1999.90;;;930.97;;
12577;SDS011;6354;51.026;8.968;2023-04-03T06:26:10;1999.90;;;617.57;;
12577;SDS011;6354;51.026;8.968;2023-04-03T06:28:38;1999.90;;;974.73;;
12577;SDS011;6354;51.026;8.968;2023-04-03T06:31:06;1999.90;;;934.03;;
12577;SDS011;6354;51.026;8.968;2023-04-03T06:33:35;1732.83;;;556.03;;
12577;SDS011;6354;51.026;8.968;2023-04-03T06:36:03;1999.90;;;950.53;;
12577;SDS011;6354;51.026;8.968;2023-04-03T06:38:32;1999.90;;;845.73;;
12577;SDS011;6354;51.026;8.968;2023-04-03T06:41:01;1999.90;;;864.07;;
12577;SDS011;6354;51.026;8.968;2023-04-03T06:43:30;1999.90;;;973.83;;
12577;SDS011;6354;51.026;8.968;2023-04-03T06:46:00;1999.90;;;861.60;;
12577;SDS011;6354;51.026;8.968;2023-04-03T06:48:28;1999.90;;;764.10;;
12577;SDS011;6354;51.026;8.968;2023-04-03T06:50:56;1999.90;;;994.27;;
12577;SDS011;6354;51.026;8.968;2023-04-03T06:53:24;1999.90;;;752.53;;
12577;SDS011;6354;51.026;8.968;2023-04-03T06:55:52;1999.90;;;936.57;;
12577;SDS011;6354;51.026;8.968;2023-04-03T06:58:20;1999.90;;;999.90;;
12577;SDS011;6354;51.026;8.968;2023-04-03T07:00:50;1999.90;;;905.57;;
12577;SDS011;6354;51.026;8.968;2023-04-03T07:03:18;1999.90;;;999.90;;
12577;SDS011;6354;51.026;8.968;2023-04-03T07:05:46;1999.90;;;933.50;;
12577;SDS011;6354;51.026;8.968;2023-04-03T07:08:14;1999.90;;;999.90;;
12577;SDS011;6354;51.026;8.968;2023-04-03T07:10:41;1999.90;;;999.90;;
12577;SDS011;6354;51.026;8.968;2023-04-03T07:13:09;1999.90;;;999.90;;
12577;SDS011;6354;51.026;8.968;2023-04-03T07:15:37;1999.90;;;999.90;;
12577;SDS011;6354;51.026;8.968;2023-04-03T07:18:07;1999.90;;;999.90;;
12577;SDS011;6354;51.026;8.968;2023-04-03T07:20:35;1999.90;;;999.90;;
12577;SDS011;6354;51.026;8.968;2023-04-03T07:23:03;1999.90;;;999.90;;
12577;SDS011;6354;51.026;8.968;2023-04-03T07:25:31;1999.90;;;999.90;;
12577;SDS011;6354;51.026;8.968;2023-04-03T07:28:00;1999.90;;;999.90;;
12577;SDS011;6354;51.026;8.968;2023-04-03T07:30:28;1999.90;;;999.90;;
12577;SDS011;6354;51.026;8.968;2023-04-03T07:32:56;1999.90;;;999.90;;
12577;SDS011;6354;51.026;8.968;2023-04-03T07:35:25;1999.90;;;999.90;;
12577;SDS011;6354;51.026;8.968;2023-04-03T07:37:53;1999.90;;;999.90;;
12577;SDS011;6354;51.026;8.968;2023-04-03T07:40:21;1999.90;;;999.90;;
12577;SDS011;6354;51.026;8.968;2023-04-03T07:42:49;1999.90;;;999.90;;
12577;SDS011;6354;51.026;8.968;2023-04-03T07:45:18;1999.90;;;999.90;;
12577;SDS011;6354;51.026;8.968;2023-04-03T07:47:46;1999.90;;;999.90;;
12577;SDS011;6354;51.026;8.968;2023-04-03T07:50:15;1999.90;;;999.90;;
12577;SDS011;6354;51.026;8.968;2023-04-03T07:52:44;1999.90;;;999.90;;
12577;SDS011;6354;51.026;8.968;2023-04-03T07:55:13;1999.90;;;999.90;;
12577;SDS011;6354;51.026;8.968;2023-04-03T07:57:41;1999.90;;;999.90;;
12577;SDS011;6354;51.026;8.968;2023-04-03T08:00:09;1999.90;;;999.90;;
12577;SDS011;6354;51.026;8.968;2023-04-03T08:02:38;1999.90;;;999.90;;
12577;SDS011;6354;51.026;8.968;2023-04-03T08:05:06;1999.90;;;999.90;;
12577;SDS011;6354;51.026;8.968;2023-04-03T08:07:36;1999.90;;;999.90;;
12577;SDS011;6354;51.026;8.968;2023-04-03T08:10:06;1999.90;;;999.90;;
12577;SDS011;6354;51.026;8.968;2023-04-03T08:12:35;1999.90;;;999.90;;
12577;SDS011;6354;51.026;8.968;2023-04-03T08:15:04;1750.57;;;992.60;;
12577;SDS011;6354;51.026;8.968;2023-04-03T08:17:32;1999.90;;;999.90;;
12577;SDS011;6354;51.026;8.968;2023-04-03T08:20:01;1999.90;;;999.90;;
12577;SDS011;6354;51.026;8.968;2023-04-03T08:22:29;1999.90;;;999.90;;
12577;SDS011;6354;51.026;8.968;2023-04-03T08:24:57;1999.90;;;999.90;;
12577;SDS011;6354;51.026;8.968;2023-04-03T08:27:27;1999.90;;;999.90;;
12577;SDS011;6354;51.026;8.968;2023-04-03T08:29:55;1999.90;;;999.90;;
12577;SDS011;6354;51.026;8.968;2023-04-03T08:32:24;1999.90;;;999.90;;
12577;SDS011;6354;51.026;8.968;2023-04-03T08:34:52;1999.90;;;999.90;;
12577;SDS011;6354;51.026;8.968;2023-04-03T08:37:20;1999.90;;;999.90;;
12577;SDS011;6354;51.026;8.968;2023-04-03T08:39:48;1685.83;;;999.90;;
12577;SDS011;6354;51.026;8.968;2023-04-03T08:42:18;1999.90;;;999.90;;
12577;SDS011;6354;51.026;8.968;2023-04-03T08:44:59;1999.90;;;999.90;;
12577;SDS011;6354;51.026;8.968;2023-04-03T08:47:34;1906.03;;;999.90;;
12577;SDS011;6354;51.026;8.968;2023-04-03T08:50:10;1999.90;;;999.90;;
12577;SDS011;6354;51.026;8.968;2023-04-03T08:52:41;1856.53;;;999.90;;
12577;SDS011;6354;51.026;8.968;2023-04-03T08:55:15;1999.90;;;999.90;;
12577;SDS011;6354;51.026;8.968;2023-04-03T08:57:50;1999.90;;;999.90;;
12577;SDS011;6354;51.026;8.968;2023-04-03T09:00:26;1999.90;;;999.90;;
12577;SDS011;6354;51.026;8.968;2023-04-03T09:02:57;1999.90;;;999.90;;
12577;SDS011;6354;51.026;8.968;2023-04-03T09:05:29;1999.90;;;999.90;;
12577;SDS011;6354;51.026;8.968;2023-04-03T09:08:07;1999.90;;;999.90;;
12577;SDS011;6354;51.026;8.968;2023-04-03T09:10:44;1999.90;;;999.90;;
12577;SDS011;6354;51.026;8.968;2023-04-03T09:13:13;1999.90;;;999.90;;
12577;SDS011;6354;51.026;8.968;2023-04-03T09:15:53;1999.90;;;999.90;;
12577;SDS011;6354;51.026;8.968;2023-04-03T09:18:25;1999.90;;;999.90;;
12577;SDS011;6354;51.026;8.968;2023-04-03T09:21:00;1999.90;;;999.90;;
12577;SDS011;6354;51.026;8.968;2023-04-03T09:23:37;1999.90;;;999.90;;
12577;SDS011;6354;51.026;8.968;2023-04-03T09:26:11;1999.90;;;999.90;;
12577;SDS011;6354;51.026;8.968;2023-04-03T09:28:45;1999.90;;;999.90;;
12577;SDS011;6354;51.026;8.968;2023-04-03T09:31:20;1999.90;;;999.90;;
12577;SDS011;6354;51.026;8.968;2023-04-03T09:33:53;1999.90;;;999.90;;
12577;SDS011;6354;51.026;8.968;2023-04-03T09:39:17;1999.90;;;999.90;;
12577;SDS011;6354;51.026;8.968;2023-04-03T09:41:57;1999.90;;;999.90;;
12577;SDS011;6354;51.026;8.968;2023-04-03T09:44:28;1999.90;;;999.90;;
12577;SDS011;6354;51.026;8.968;2023-04-03T09:47:17;1999.90;;;999.90;;
12577;SDS011;6354;51.026;8.968;2023-04-03T09:49:47;1999.90;;;999.90;;
12577;SDS011;6354;51.026;8.968;2023-04-03T09:52:18;1999.90;;;999.90;;
12577;SDS011;6354;51.026;8.968;2023-04-03T09:54:47;1999.90;;;999.90;;
12577;SDS011;6354;51.026;8.968;2023-04-03T09:57:16;1999.90;;;999.90;;
12577;SDS011;6354;51.026;8.968;2023-04-03T09:59:46;1999.90;;;999.90;;
12577;SDS011;6354;51.026;8.968;2023-04-03T10:02:30;1999.90;;;999.90;;
12577;SDS011;6354;51.026;8.968;2023-04-03T10:05:02;1999.90;;;999.90;;
12577;SDS011;6354;51.026;8.968;2023-04-03T10:07:38;1999.90;;;999.90;;
12577;SDS011;6354;51.026;8.968;2023-04-03T10:10:18;1999.90;;;999.90;;
12577;SDS011;6354;51.026;8.968;2023-04-03T10:12:49;1999.90;;;999.90;;
12577;SDS011;6354;51.026;8.968;2023-04-03T10:15:32;1999.90;;;999.90;;
12577;SDS011;6354;51.026;8.968;2023-04-03T10:18:10;1999.90;;;999.90;;
12577;SDS011;6354;51.026;8.968;2023-04-03T10:20:54;1999.90;;;999.90;;
12577;SDS011;6354;51.026;8.968;2023-04-03T10:23:28;1999.90;;;999.90;;
12577;SDS011;6354;51.026;8.968;2023-04-03T10:26:06;1999.90;;;999.90;;
12577;SDS011;6354;51.026;8.968;2023-04-03T10:28:45;1999.90;;;999.90;;
12577;SDS011;6354;51.026;8.968;2023-04-03T10:31:21;1999.90;;;999.90;;
12577;SDS011;6354;51.026;8.968;2023-04-03T10:33:58;1999.90;;;999.90;;
12577;SDS011;6354;51.026;8.968;2023-04-03T10:36:34;1999.90;;;999.90;;
12577;SDS011;6354;51.026;8.968;2023-04-03T10:39:12;1999.90;;;999.90;;
12577;SDS011;6354;51.026;8.968;2023-04-03T10:41:52;1999.90;;;999.90;;
12577;SDS011;6354;51.026;8.968;2023-04-03T10:44:45;1999.90;;;999.90;;
12577;SDS011;6354;51.026;8.968;2023-04-03T10:47:37;1420.90;;;840.20;;
12577;SDS011;6354;51.026;8.968;2023-04-03T10:50:22;1999.90;;;999.90;;
12577;SDS011;6354;51.026;8.968;2023-04-03T10:52:57;1999.90;;;999.90;;
12577;SDS011;6354;51.026;8.968;2023-04-03T10:55:36;1999.90;;;999.90;;
12577;SDS011;6354;51.026;8.968;2023-04-03T10:58:08;1999.90;;;999.90;;
12577;SDS011;6354;51.026;8.968;2023-04-03T11:00:47;1999.90;;;999.90;;
12577;SDS011;6354;51.026;8.968;2023-04-03T11:03:22;1999.90;;;999.90;;
12577;SDS011;6354;51.026;8.968;2023-04-03T11:05:59;1999.90;;;999.90;;
12577;SDS011;6354;51.026;8.968;2023-04-03T11:08:32;1999.90;;;999.90;;
12577;SDS011;6354;51.026;8.968;2023-04-03T11:11:03;1999.90;;;999.90;;
12577;SDS011;6354;51.026;8.968;2023-04-03T11:13:34;1999.90;;;999.90;;
12577;SDS011;6354;51.026;8.968;2023-04-03T11:16:07;1999.90;;;999.90;;
12577;SDS011;6354;51.026;8.968;2023-04-03T11:18:37;1999.90;;;999.90;;
12577;SDS011;6354;51.026;8.968;2023-04-03T11:21:13;1999.90;;;999.90;;
12577;SDS011;6354;51.026;8.968;2023-04-03T11:23:47;1999.90;;;999.90;;
12577;SDS011;6354;51.026;8.968;2023-04-03T11:26:17;1999.90;;;999.90;;
12577;SDS011;6354;51.026;8.968;2023-04-03T11:28:51;1999.90;;;999.90;;
12577;SDS011;6354;51.026;8.968;2023-04-03T11:31:30;1999.90;;;999.90;;
12577;SDS011;6354;51.026;8.968;2023-04-03T11:34:08;1999.90;;;999.90;;
12577;SDS011;6354;51.026;8.968;2023-04-03T11:36:47;1999.90;;;999.90;;
12577;SDS011;6354;51.026;8.968;2023-04-03T11:39:19;1999.90;;;999.90;;
12577;SDS011;6354;51.026;8.968;2023-04-03T11:41:50;1999.90;;;999.90;;
12577;SDS011;6354;51.026;8.968;2023-04-03T11:44:33;1999.90;;;999.90;;
12577;SDS011;6354;51.026;8.968;2023-04-03T11:47:04;1999.90;;;999.90;;
12577;SDS011;6354;51.026;8.968;2023-04-03T11:55:44;1999.90;;;999.90;;
12577;SDS011;6354;51.026;8.968;2023-04-03T11:58:19;1999.90;;;999.90;;
12577;SDS011;6354;51.026;8.968;2023-04-03T12:00:49;1999.90;;;999.90;;
12577;SDS011;6354;51.026;8.968;2023-04-03T12:03:30;1999.90;;;999.90;;
12577;SDS011;6354;51.026;8.968;2023-04-03T12:09:05;1999.90;;;999.90;;
12577;SDS011;6354;51.026;8.968;2023-04-03T12:11:59;1999.90;;;996.13;;
12577;SDS011;6354;51.026;8.968;2023-04-03T12:14:48;1999.90;;;999.90;;
12577;SDS011;6354;51.026;8.968;2023-04-03T12:17:19;1999.90;;;999.90;;
12577;SDS011;6354;51.026;8.968;2023-04-03T12:19:51;1999.90;;;999.90;;
12577;SDS011;6354;51.026;8.968;2023-04-03T12:22:20;1999.90;;;999.90;;
12577;SDS011;6354;51.026;8.968;2023-04-03T12:24:50;1999.90;;;999.90;;
12577;SDS011;6354;51.026;8.968;2023-04-03T12:30:13;1999.90;;;999.90;;
12577;SDS011;6354;51.026;8.968;2023-04-03T12:32:58;1999.90;;;999.90;;
12577;SDS011;6354;51.026;8.968;2023-04-03T12:35:43;1999.90;;;999.90;;
12577;SDS011;6354;51.026;8.968;2023-04-03T12:41:29;1999.90;;;999.90;;
12577;SDS011;6354;51.026;8.968;2023-04-03T12:44:09;1999.90;;;999.90;;
12577;SDS011;6354;51.026;8.968;2023-04-03T12:47:07;1999.90;;;999.90;;
12577;SDS011;6354;51.026;8.968;2023-04-03T12:49:47;1999.90;;;999.90;;
12577;SDS011;6354;51.026;8.968;2023-04-03T12:52:19;1999.90;;;999.90;;
12577;SDS011;6354;51.026;8.968;2023-04-03T12:54:56;1999.90;;;999.90;;
12577;SDS011;6354;51.026;8.968;2023-04-03T12:57:25;1999.90;;;999.90;;
12577;SDS011;6354;51.026;8.968;2023-04-03T12:59:54;1999.90;;;999.90;;
12577;SDS011;6354;51.026;8.968;2023-04-03T13:02:24;1999.90;;;999.90;;
12577;SDS011;6354;51.026;8.968;2023-04-03T13:04:55;1999.90;;;999.90;;
12577;SDS011;6354;51.026;8.968;2023-04-03T13:07:27;1999.90;;;999.90;;
12577;SDS011;6354;51.026;8.968;2023-04-03T13:10:04;1999.90;;;999.90;;
12577;SDS011;6354;51.026;8.968;2023-04-03T13:12:48;1999.90;;;999.90;;
12577;SDS011;6354;51.026;8.968;2023-04-03T13:15:18;1999.90;;;999.90;;
12577;SDS011;6354;51.026;8.968;2023-04-03T13:17:49;1999.90;;;999.90;;
12577;SDS011;6354;51.026;8.968;2023-04-03T13:20:20;1999.90;;;999.90;;
12577;SDS011;6354;51.026;8.968;2023-04-03T13:22:55;1999.90;;;999.90;;
12577;SDS011;6354;51.026;8.968;2023-04-03T13:25:26;1999.90;;;999.90;;
12577;SDS011;6354;51.026;8.968;2023-04-03T13:27:59;1999.90;;;999.90;;
12577;SDS011;6354;51.026;8.968;2023-04-03T13:30:39;1999.90;;;999.90;;
12577;SDS011;6354;51.026;8.968;2023-04-03T13:33:19;1999.90;;;999.90;;
12577;SDS011;6354;51.026;8.968;2023-04-03T13:35:54;1999.90;;;999.90;;
12577;SDS011;6354;51.026;8.968;2023-04-03T13:38:25;1999.90;;;999.90;;
12577;SDS011;6354;51.026;8.968;2023-04-03T13:40:58;1999.90;;;999.90;;
12577;SDS011;6354;51.026;8.968;2023-04-03T13:43:31;1999.90;;;999.90;;
12577;SDS011;6354;51.026;8.968;2023-04-03T13:46:02;1999.90;;;999.90;;
12577;SDS011;6354;51.026;8.968;2023-04-03T13:48:48;1999.90;;;893.33;;
12577;SDS011;6354;51.026;8.968;2023-04-03T13:51:19;1912.13;;;999.90;;
12577;SDS011;6354;51.026;8.968;2023-04-03T13:53:50;1685.20;;;999.90;;
12577;SDS011;6354;51.026;8.968;2023-04-03T13:56:24;1999.90;;;999.90;;
12577;SDS011;6354;51.026;8.968;2023-04-03T13:59:00;1999.90;;;999.90;;
12577;SDS011;6354;51.026;8.968;2023-04-03T14:01:38;1999.90;;;999.90;;
12577;SDS011;6354;51.026;8.968;2023-04-03T14:04:11;1999.90;;;999.90;;
12577;SDS011;6354;51.026;8.968;2023-04-03T14:06:42;1999.90;;;999.90;;
12577;SDS011;6354;51.026;8.968;2023-04-03T14:09:11;1999.90;;;999.90;;
12577;SDS011;6354;51.026;8.968;2023-04-03T14:11:39;1999.90;;;999.90;;
12577;SDS011;6354;51.026;8.968;2023-04-03T14:14:11;1999.90;;;999.90;;
12577;SDS011;6354;51.026;8.968;2023-04-03T14:16:44;1999.90;;;999.90;;
12577;SDS011;6354;51.026;8.968;2023-04-03T14:19:18;1999.90;;;999.90;;
12577;SDS011;6354;51.026;8.968;2023-04-03T14:21:49;1999.90;;;995.00;;
12577;SDS011;6354;51.026;8.968;2023-04-03T14:24:18;1999.90;;;999.90;;
12577;SDS011;6354;51.026;8.968;2023-04-03T14:26:48;1999.90;;;999.90;;
12577;SDS011;6354;51.026;8.968;2023-04-03T14:29:18;1999.90;;;999.90;;
12577;SDS011;6354;51.026;8.968;2023-04-03T14:31:48;1999.90;;;999.90;;
12577;SDS011;6354;51.026;8.968;2023-04-03T14:34:29;1999.90;;;999.90;;
12577;SDS011;6354;51.026;8.968;2023-04-03T14:36:57;1999.90;;;999.90;;
12577;SDS011;6354;51.026;8.968;2023-04-03T14:39:25;1999.90;;;997.47;;
12577;SDS011;6354;51.026;8.968;2023-04-03T14:41:53;1999.90;;;999.83;;